Aviation Digital Data Service (ADDS)

Output produced by METARs form (1815 UTC 19 April 2019)
found at http://www.aviationweather.gov/metar/data/
 
Forecast for: OEJN (JEDDAH/KING ABDU, SA)
Text: TAF OEJN 191700Z 1918/2024 02008KT 6000 NSC
Forecast period: 1800 UTC 19 April 2019 to 0600 UTC 20 April 2019
Forecast type: FROM: standard forecast or significant change
Winds: from the NNE (20 degrees) at 9 MPH (8 knots; 4.1 m/s)
Visibility: 4 miles (6 km)
Ceiling: unknown
Clouds: missing
Weather: no significant weather forecast for this period
Text: BECMG 2006/2008 33010G20KT
Forecast period: 0600 UTC 20 April 2019 to 0000 UTC 21 April 2019
Forecast type: BECOMING: Conditions expected to become as follows by 0800 UTC 20 April 2019
Winds: from the NNW (330 degrees) at 12 MPH (10 knots; 5.1 m/s)
gusting to 23 MPH (20 knots; 10.3 m/s)
Visibility: 4 miles (6 km)
Ceiling: unknown
Clouds: missing
Weather: no significant weather forecast for this period